createdAt,value
2018-07-20T00:02:10.811Z,26.07
2018-07-20T00:04:41.924Z,23.40
2018-07-20T00:07:13.336Z,24.33
2018-07-20T00:09:44.206Z,20.93
2018-07-20T00:12:15.220Z,20.00
2018-07-20T00:14:46.247Z,21.80
2018-07-20T00:17:17.302Z,27.67
2018-07-20T00:19:48.518Z,28.83
2018-07-20T00:22:19.240Z,23.23
2018-07-20T00:24:50.271Z,24.10
2018-07-20T00:27:21.031Z,23.30
2018-07-20T00:29:51.825Z,26.53
2018-07-20T00:32:22.731Z,28.77
2018-07-20T00:34:53.492Z,35.73
2018-07-20T00:37:24.263Z,34.80
2018-07-20T00:39:55.050Z,26.03
2018-07-20T00:42:26.025Z,30.43
2018-07-20T00:44:57.315Z,24.03
2018-07-20T00:47:28.273Z,25.33
2018-07-20T00:49:59.147Z,28.77
2018-07-20T00:52:29.950Z,30.43
2018-07-20T00:55:00.971Z,31.90
2018-07-20T00:57:32.063Z,37.70
2018-07-20T01:00:02.915Z,38.97
2018-07-20T01:02:33.801Z,52.93
2018-07-20T01:05:04.647Z,47.23
2018-07-20T01:07:35.456Z,42.70
2018-07-20T01:10:06.536Z,46.43
2018-07-20T01:12:37.369Z,41.03
2018-07-20T01:15:08.196Z,45.13
2018-07-20T01:17:39.249Z,39.90
2018-07-20T01:20:10.247Z,39.23
2018-07-20T01:22:41.335Z,45.83
2018-07-20T01:25:12.406Z,46.10
2018-07-20T01:27:43.337Z,41.00
2018-07-20T01:30:14.427Z,29.57
2018-07-20T01:32:45.270Z,36.83
2018-07-20T01:35:16.158Z,33.17
2018-07-20T01:37:47.000Z,26.03
2018-07-20T01:40:17.819Z,26.37
2018-07-20T01:42:48.830Z,27.03
2018-07-20T01:45:19.644Z,24.07
2018-07-20T01:47:50.671Z,26.00
2018-07-20T01:50:21.491Z,26.23
2018-07-20T01:52:52.438Z,29.67
2018-07-20T01:55:23.329Z,40.97
2018-07-20T01:57:54.183Z,66.60
2018-07-20T02:00:25.078Z,45.60
2018-07-20T02:02:55.906Z,41.20
2018-07-20T02:05:26.822Z,33.23
2018-07-20T02:07:57.733Z,37.40
2018-07-20T02:10:29.394Z,37.07
2018-07-20T02:13:00.250Z,37.50
2018-07-20T02:15:31.010Z,47.13
2018-07-20T02:18:01.883Z,56.53
2018-07-20T02:20:33.015Z,50.90
2018-07-20T02:23:03.947Z,43.67
2018-07-20T02:25:35.079Z,36.40
2018-07-20T02:28:05.857Z,41.47
2018-07-20T02:30:36.876Z,36.43
2018-07-20T02:33:07.821Z,36.03
2018-07-20T02:35:38.740Z,35.60
2018-07-20T02:38:09.667Z,34.17
2018-07-20T02:40:40.420Z,29.53
2018-07-20T02:43:11.465Z,32.40
2018-07-20T02:45:42.323Z,29.87
2018-07-20T02:48:13.314Z,29.80
2018-07-20T02:50:44.318Z,30.07
2018-07-20T02:53:15.099Z,31.53
2018-07-20T02:55:45.789Z,33.53
2018-07-20T02:58:16.893Z,29.53
2018-07-20T03:00:47.816Z,32.60
2018-07-20T03:03:18.555Z,25.23
2018-07-20T03:05:49.504Z,23.30
2018-07-20T03:08:20.285Z,26.83
2018-07-20T03:10:51.175Z,25.30
2018-07-20T03:13:21.912Z,26.40
2018-07-20T03:15:52.762Z,25.57
2018-07-20T03:18:23.636Z,25.07
2018-07-20T03:20:54.417Z,25.10
2018-07-20T03:23:25.483Z,26.53
2018-07-20T03:25:56.308Z,24.10
2018-07-20T03:28:27.454Z,22.90
2018-07-20T03:30:58.299Z,26.50
2018-07-20T03:33:29.199Z,20.43
2018-07-20T03:35:59.952Z,21.87
2018-07-20T03:38:30.775Z,22.97
2018-07-20T03:41:01.604Z,23.83
2018-07-20T03:43:32.772Z,42.37
2018-07-20T03:46:03.551Z,28.07
2018-07-20T03:48:34.428Z,44.63
2018-07-20T03:51:05.213Z,31.90
2018-07-20T03:53:36.105Z,33.50
2018-07-20T03:56:06.841Z,32.63
2018-07-20T03:58:37.711Z,26.83
2018-07-20T04:01:08.525Z,31.03
2018-07-20T04:03:39.321Z,38.80
2018-07-20T04:06:10.060Z,37.37
2018-07-20T04:08:40.930Z,54.17
2018-07-20T04:11:11.733Z,54.70
2018-07-20T04:13:42.537Z,46.87
2018-07-20T04:16:13.462Z,42.37
2018-07-20T04:18:44.354Z,59.70
2018-07-20T04:21:15.231Z,32.33
2018-07-20T04:23:46.116Z,30.43
2018-07-20T04:26:17.252Z,29.00
2018-07-20T04:28:48.508Z,28.07
2018-07-20T04:31:19.789Z,45.53
2018-07-20T04:33:50.722Z,41.23
2018-07-20T04:36:21.520Z,53.63
2018-07-20T04:38:52.386Z,42.23
2018-07-20T04:41:23.353Z,45.37
2018-07-20T04:43:54.229Z,38.00
2018-07-20T04:46:25.294Z,39.57
2018-07-20T04:48:56.156Z,33.90
2018-07-20T04:51:27.049Z,38.77
2018-07-20T04:53:58.015Z,35.77
2018-07-20T04:56:28.978Z,31.83
2018-07-20T04:58:59.865Z,32.07
2018-07-20T05:01:30.711Z,35.40
2018-07-20T05:04:01.637Z,32.40
2018-07-20T05:06:32.572Z,45.67
2018-07-20T05:09:03.722Z,49.40
2018-07-20T05:11:34.614Z,43.80
2018-07-20T05:14:05.450Z,36.87
2018-07-20T05:16:36.446Z,46.67
2018-07-20T05:19:07.203Z,41.60
2018-07-20T05:21:38.003Z,45.47
2018-07-20T05:24:08.914Z,59.80
2018-07-20T05:26:39.789Z,60.90
2018-07-20T05:29:10.523Z,46.87
2018-07-20T05:31:41.322Z,42.20
2018-07-20T05:34:12.000Z,37.20
2018-07-20T05:36:42.861Z,39.53
2018-07-20T05:39:13.929Z,49.57
2018-07-20T05:41:44.843Z,37.23
2018-07-20T05:44:15.681Z,36.97
2018-07-20T05:46:46.519Z,35.27
2018-07-20T05:49:17.472Z,30.83
2018-07-20T05:51:48.661Z,47.73
2018-07-20T05:54:19.605Z,40.90
2018-07-20T05:56:50.582Z,35.03
2018-07-20T05:59:21.857Z,34.73
2018-07-20T06:01:52.631Z,39.43
2018-07-20T06:04:23.487Z,33.27
2018-07-20T06:06:54.320Z,35.90
2018-07-20T06:09:25.141Z,31.00
2018-07-20T06:11:56.157Z,26.20
2018-07-20T06:14:26.923Z,25.33
2018-07-20T06:16:57.806Z,26.47
2018-07-20T06:19:28.769Z,29.77
2018-07-20T06:21:59.578Z,23.57
2018-07-20T06:24:30.514Z,22.47
2018-07-20T06:27:01.264Z,27.17
2018-07-20T06:29:32.272Z,28.80
2018-07-20T06:32:03.146Z,21.40
2018-07-20T06:34:34.171Z,23.97
2018-07-20T06:37:04.996Z,24.33
2018-07-20T06:39:35.852Z,15.50
2018-07-20T06:42:06.871Z,19.03
2018-07-20T06:44:37.701Z,20.07
2018-07-20T06:47:08.804Z,18.40
2018-07-20T06:49:39.590Z,12.63
2018-07-20T06:52:10.609Z,13.10
2018-07-20T06:54:41.567Z,25.07
2018-07-20T06:57:12.336Z,21.97
2018-07-20T06:59:43.246Z,21.30
2018-07-20T07:02:14.380Z,26.37
2018-07-20T07:04:45.142Z,29.00
2018-07-20T07:07:16.367Z,30.07
2018-07-20T07:09:47.222Z,31.93
2018-07-20T07:12:18.072Z,30.07
2018-07-20T07:14:48.970Z,28.23
2018-07-20T07:17:19.091Z,32.50
2018-07-20T07:19:49.895Z,33.53
2018-07-20T07:22:20.752Z,44.57
2018-07-20T07:24:51.573Z,42.70
2018-07-20T07:27:22.451Z,32.13
2018-07-20T07:29:53.304Z,35.10
2018-07-20T07:32:24.486Z,32.80
2018-07-20T07:34:55.705Z,28.07
2018-07-20T07:37:26.639Z,27.00
2018-07-20T07:39:57.488Z,28.40
2018-07-20T07:42:28.264Z,43.90
2018-07-20T07:44:59.433Z,55.13
2018-07-20T07:47:30.417Z,94.13
2018-07-20T07:50:01.742Z,83.33
2018-07-20T07:52:32.637Z,52.17
2018-07-20T07:55:03.430Z,46.70
2018-07-20T07:57:34.209Z,43.73
2018-07-20T08:00:05.880Z,37.70
2018-07-20T08:02:36.878Z,37.67
2018-07-20T08:05:07.976Z,43.97
2018-07-20T08:07:39.002Z,54.67
2018-07-20T08:10:09.971Z,60.83
2018-07-20T08:12:40.879Z,42.67
2018-07-20T08:15:11.865Z,48.57
2018-07-20T08:17:42.749Z,42.23
2018-07-20T08:20:13.654Z,31.13
2018-07-20T08:22:44.822Z,31.27
2018-07-20T08:25:15.823Z,32.73
2018-07-20T08:27:46.887Z,38.40
2018-07-20T08:30:17.697Z,28.60
2018-07-20T08:32:48.594Z,30.07
2018-07-20T08:35:19.521Z,28.43
2018-07-20T08:37:50.467Z,26.13
2018-07-20T08:40:21.411Z,32.20
2018-07-20T08:42:52.654Z,27.00
2018-07-20T08:45:23.521Z,27.07
2018-07-20T08:47:55.290Z,31.20
2018-07-20T08:50:26.052Z,26.97
2018-07-20T08:52:56.853Z,26.27
2018-07-20T08:55:27.710Z,51.60
2018-07-20T08:57:58.555Z,30.00
2018-07-20T09:00:29.401Z,33.03
2018-07-20T09:03:00.125Z,35.83
2018-07-20T09:05:33.719Z,22.70
2018-07-20T09:08:05.003Z,20.47
2018-07-20T09:10:35.850Z,17.07
2018-07-20T09:13:06.730Z,23.03
2018-07-20T09:15:37.545Z,20.60
2018-07-20T09:18:09.589Z,16.23
2018-07-20T09:20:40.480Z,13.60
2018-07-20T09:23:11.860Z,18.97
2018-07-20T09:25:42.702Z,18.13
2018-07-20T09:28:13.531Z,10.87
2018-07-20T09:30:44.436Z,12.27
2018-07-20T09:33:15.214Z,10.33
2018-07-20T09:35:45.916Z,11.80
2018-07-20T09:38:16.770Z,9.90
2018-07-20T09:40:47.690Z,10.50
2018-07-20T09:43:18.527Z,9.07
2018-07-20T09:45:49.308Z,9.20
2018-07-20T09:48:20.126Z,9.77
2018-07-20T09:50:51.189Z,11.47
2018-07-20T09:53:22.010Z,9.30
2018-07-20T09:55:52.933Z,9.50
2018-07-20T09:58:23.752Z,10.73
2018-07-20T10:00:54.570Z,10.03
2018-07-20T10:03:25.576Z,9.87
2018-07-20T10:05:56.537Z,11.47
2018-07-20T10:08:27.611Z,12.13
2018-07-20T10:10:58.378Z,11.77
2018-07-20T10:13:29.318Z,10.60
2018-07-20T10:16:00.210Z,10.30
2018-07-20T10:18:31.010Z,11.93
2018-07-20T10:21:01.873Z,8.47
2018-07-20T10:23:33.009Z,8.77
2018-07-20T10:26:03.951Z,9.17
2018-07-20T10:28:34.747Z,10.23
2018-07-20T10:31:05.765Z,8.40
2018-07-20T10:33:36.847Z,8.30
2018-07-20T10:36:07.660Z,9.63
2018-07-20T10:38:38.290Z,9.30
2018-07-20T10:41:09.566Z,8.87
2018-07-20T10:43:40.288Z,8.17
2018-07-20T10:46:11.106Z,8.57
2018-07-20T10:48:42.355Z,8.97
2018-07-20T10:51:13.217Z,7.23
2018-07-20T10:53:44.630Z,8.93
2018-07-20T10:56:15.887Z,9.47
2018-07-20T10:58:46.792Z,10.73
2018-07-20T11:01:17.740Z,8.60
2018-07-20T11:03:48.707Z,8.30
2018-07-20T11:06:19.470Z,9.70
2018-07-20T11:08:50.499Z,11.97
2018-07-20T11:11:21.287Z,10.83
2018-07-20T11:13:52.122Z,12.97
2018-07-20T11:16:23.141Z,15.57
2018-07-20T11:18:53.857Z,10.57
2018-07-20T11:21:24.944Z,7.60
2018-07-20T11:23:55.723Z,8.23
2018-07-20T11:26:26.626Z,6.73
2018-07-20T11:28:57.445Z,6.73
2018-07-20T11:31:28.360Z,7.00
2018-07-20T11:33:59.257Z,10.40
2018-07-20T11:36:29.984Z,5.70
2018-07-20T11:39:00.916Z,6.80
2018-07-20T11:41:31.836Z,5.53
2018-07-20T11:44:02.720Z,5.57
2018-07-20T11:46:33.505Z,6.77
2018-07-20T11:49:04.494Z,6.30
2018-07-20T11:51:35.208Z,5.93
2018-07-20T11:54:05.962Z,6.50
2018-07-20T11:56:37.041Z,5.27
2018-07-20T11:59:07.735Z,5.60
2018-07-20T12:01:38.413Z,5.30
2018-07-20T12:04:09.398Z,4.97
2018-07-20T12:06:40.132Z,6.07
2018-07-20T12:09:12.542Z,5.17
2018-07-20T12:11:43.481Z,7.23
2018-07-20T12:14:14.447Z,9.67
2018-07-20T12:16:45.235Z,8.23
2018-07-20T12:19:15.872Z,6.67
2018-07-20T12:21:46.597Z,7.30
2018-07-20T12:24:17.321Z,8.23
2018-07-20T12:26:48.221Z,9.10
2018-07-20T12:29:19.607Z,6.10
2018-07-20T12:31:50.784Z,7.03
2018-07-20T12:34:22.059Z,7.20
2018-07-20T12:36:52.979Z,9.03
2018-07-20T12:39:24.040Z,6.20
2018-07-20T12:41:54.133Z,5.83
2018-07-20T12:44:25.282Z,7.43
2018-07-20T12:46:56.028Z,5.70
2018-07-20T12:49:27.125Z,6.00
2018-07-20T12:51:58.615Z,6.03
2018-07-20T12:54:29.378Z,6.30
2018-07-20T12:57:00.117Z,9.70
2018-07-20T12:59:33.835Z,5.77
2018-07-20T13:02:05.149Z,10.07
2018-07-20T13:04:35.909Z,7.70
2018-07-20T13:07:07.293Z,6.37
2018-07-20T13:09:38.125Z,8.23
2018-07-20T13:12:09.201Z,8.33
2018-07-20T13:14:40.022Z,7.63
2018-07-20T13:17:10.923Z,6.10
2018-07-20T13:19:42.137Z,6.73
2018-07-20T13:22:12.860Z,8.97
2018-07-20T13:24:44.366Z,7.13
2018-07-20T13:27:15.456Z,6.63
2018-07-20T13:29:46.364Z,6.20
2018-07-20T13:32:17.135Z,8.40
2018-07-20T13:34:47.943Z,15.53
2018-07-20T13:37:18.802Z,12.30
2018-07-20T13:39:49.564Z,12.57
2018-07-20T13:42:20.390Z,9.63
2018-07-20T13:44:51.023Z,10.90
2018-07-20T13:47:21.874Z,9.17
2018-07-20T13:49:52.671Z,9.63
2018-07-20T13:52:23.838Z,9.20
2018-07-20T13:54:54.470Z,10.60
2018-07-20T13:57:25.231Z,10.17
2018-07-20T13:59:55.925Z,8.47
2018-07-20T14:02:26.606Z,10.80
2018-07-20T14:04:57.367Z,11.27
2018-07-20T14:07:28.241Z,14.63
2018-07-20T14:09:58.980Z,9.37
2018-07-20T14:12:29.646Z,8.50
2018-07-20T14:15:00.318Z,11.87
2018-07-20T14:17:31.169Z,18.53
2018-07-20T14:20:02.296Z,12.30
2018-07-20T14:22:33.637Z,10.33
2018-07-20T14:25:04.633Z,12.70
2018-07-20T14:27:35.293Z,8.57
2018-07-20T14:30:06.531Z,10.03
2018-07-20T14:32:37.280Z,9.67
2018-07-20T14:35:08.074Z,12.07
2018-07-20T14:37:38.821Z,7.10
2018-07-20T14:40:10.019Z,6.33
2018-07-20T14:42:40.954Z,6.27
2018-07-20T14:45:12.031Z,8.13
2018-07-20T14:47:42.873Z,9.80
2018-07-20T14:50:13.606Z,8.17
2018-07-20T14:52:44.351Z,8.63
2018-07-20T14:55:15.010Z,9.27
2018-07-20T14:57:45.914Z,10.00
2018-07-20T15:00:16.667Z,7.67
2018-07-20T15:02:47.470Z,10.13
2018-07-20T15:05:18.221Z,7.17
2018-07-20T15:07:53.767Z,10.93
2018-07-20T15:10:32.315Z,11.47
2018-07-20T15:13:08.713Z,7.37
2018-07-20T15:15:39.973Z,12.43
2018-07-20T15:18:10.795Z,6.77
2018-07-20T15:20:41.802Z,12.93
2018-07-20T15:23:12.968Z,11.00
2018-07-20T15:26:02.857Z,10.13
2018-07-20T15:28:35.269Z,12.40
2018-07-20T15:31:06.716Z,13.47
2018-07-20T15:33:37.665Z,16.50
2018-07-20T15:36:10.146Z,8.00
2018-07-20T15:38:40.842Z,14.50
2018-07-20T15:41:11.852Z,10.17
2018-07-20T15:43:43.361Z,7.07
2018-07-20T15:46:14.134Z,9.53
2018-07-20T15:48:44.998Z,9.13
2018-07-20T15:51:15.784Z,9.00
2018-07-20T15:53:46.675Z,7.17
2018-07-20T15:56:17.615Z,10.30
2018-07-20T15:58:48.258Z,8.53
2018-07-20T16:01:19.033Z,13.43
2018-07-20T16:03:51.218Z,10.03
2018-07-20T16:06:21.993Z,8.27
2018-07-20T16:08:53.106Z,10.77
2018-07-20T16:11:23.865Z,9.33
2018-07-20T16:13:54.880Z,9.67
2018-07-20T16:16:25.577Z,8.20
2018-07-20T16:18:56.305Z,9.03
2018-07-20T16:21:26.993Z,9.97
2018-07-20T16:23:57.765Z,8.00
2018-07-20T16:26:28.569Z,13.20
2018-07-20T16:28:58.588Z,7.90
2018-07-20T16:31:29.565Z,11.37
2018-07-20T16:34:00.334Z,9.27
2018-07-20T16:36:31.285Z,8.63
2018-07-20T16:39:02.122Z,11.03
2018-07-20T16:41:32.945Z,9.57
2018-07-20T16:44:03.716Z,10.57
2018-07-20T16:46:34.514Z,9.87
2018-07-20T16:49:05.331Z,11.07
2018-07-20T16:51:36.320Z,6.80
2018-07-20T16:54:07.286Z,9.30
2018-07-20T16:56:39.144Z,9.57
2018-07-20T16:59:10.090Z,12.07
2018-07-20T17:01:40.911Z,12.77
2018-07-20T17:04:11.638Z,14.03
2018-07-20T17:06:42.414Z,11.70
2018-07-20T17:09:13.611Z,12.13
2018-07-20T17:11:44.654Z,12.63
2018-07-20T17:14:14.695Z,12.37
2018-07-20T17:16:45.453Z,13.60
2018-07-20T17:19:16.466Z,13.20
2018-07-20T17:21:47.778Z,12.53
2018-07-20T17:24:18.646Z,14.07
2018-07-20T17:26:49.460Z,12.20
2018-07-20T17:29:20.611Z,10.17
2018-07-20T17:31:51.713Z,14.33
2018-07-20T17:34:22.489Z,11.07
2018-07-20T17:36:53.785Z,13.27
2018-07-20T17:39:24.926Z,20.73
2018-07-20T17:41:55.947Z,13.53
2018-07-20T17:44:26.803Z,23.37
2018-07-20T17:46:57.632Z,18.57
2018-07-20T17:49:28.299Z,18.00
2018-07-20T17:51:59.128Z,18.20
2018-07-20T17:54:29.857Z,20.57
2018-07-20T17:57:00.579Z,23.50
2018-07-20T17:59:31.549Z,22.10
2018-07-20T18:02:02.397Z,31.97
2018-07-20T18:04:33.162Z,14.47
2018-07-20T18:07:03.940Z,23.63
2018-07-20T18:09:34.915Z,22.43
2018-07-20T18:12:06.166Z,20.80
2018-07-20T18:14:36.927Z,18.23
2018-07-20T18:17:07.702Z,14.23
2018-07-20T18:19:38.546Z,13.40
2018-07-20T18:22:09.530Z,13.40
2018-07-20T18:24:40.302Z,16.97
2018-07-20T18:27:11.166Z,14.70
2018-07-20T18:29:41.781Z,26.20
2018-07-20T18:32:12.862Z,25.33
2018-07-20T18:34:43.709Z,15.80
2018-07-20T18:37:14.497Z,23.37
2018-07-20T18:39:45.435Z,21.20
2018-07-20T18:42:16.729Z,21.60
2018-07-20T18:44:47.477Z,19.70
2018-07-20T18:47:18.209Z,22.93
2018-07-20T18:49:49.015Z,22.83
2018-07-20T18:52:19.676Z,22.00
2018-07-20T18:54:50.455Z,24.37
2018-07-20T18:57:21.186Z,24.50
2018-07-20T18:59:52.002Z,21.00
2018-07-20T19:02:22.826Z,22.50
2018-07-20T19:04:53.707Z,20.43
2018-07-20T19:07:24.776Z,24.17
2018-07-20T19:09:57.054Z,20.73
2018-07-20T19:12:27.789Z,22.83
2018-07-20T19:14:58.554Z,19.10
2018-07-20T19:17:29.494Z,23.03
2018-07-20T19:20:00.229Z,19.73
2018-07-20T19:22:30.869Z,23.70
2018-07-20T19:25:02.030Z,26.43
2018-07-20T19:27:32.780Z,22.20
2018-07-20T19:30:03.714Z,22.50
2018-07-20T19:32:34.572Z,21.77
2018-07-20T19:35:07.368Z,20.70
2018-07-20T19:37:38.136Z,23.17
2018-07-20T19:40:08.836Z,27.13
2018-07-20T19:42:39.952Z,26.53
2018-07-20T19:45:10.725Z,28.27
2018-07-20T19:47:41.458Z,25.63
2018-07-20T19:50:13.047Z,31.10
2018-07-20T19:52:44.070Z,29.47
2018-07-20T19:55:16.024Z,30.37
2018-07-20T19:57:50.889Z,31.13
2018-07-20T20:00:22.262Z,33.33
2018-07-20T20:02:53.067Z,34.37
2018-07-20T20:05:23.832Z,40.90
2018-07-20T20:07:54.773Z,35.27
2018-07-20T20:10:25.635Z,37.40
2018-07-20T20:12:56.434Z,64.00
2018-07-20T20:15:28.011Z,110.47
2018-07-20T20:17:58.905Z,123.00
2018-07-20T20:20:29.676Z,54.73
2018-07-20T20:23:00.641Z,55.10
2018-07-20T20:25:31.500Z,32.87
2018-07-20T20:28:02.179Z,31.40
2018-07-20T20:30:32.978Z,22.13
2018-07-20T20:33:03.931Z,25.03
2018-07-20T20:35:35.118Z,37.00
2018-07-20T20:38:05.840Z,36.20
2018-07-20T20:40:36.612Z,29.87
2018-07-20T20:43:07.375Z,34.30
2018-07-20T20:45:38.425Z,46.70
2018-07-20T20:48:09.108Z,46.50
2018-07-20T20:50:39.882Z,32.40
2018-07-20T20:53:10.934Z,31.00
2018-07-20T20:55:41.877Z,26.03
2018-07-20T20:58:12.938Z,28.23
2018-07-20T21:00:44.340Z,31.97
2018-07-20T21:03:15.122Z,25.53
2018-07-20T21:05:46.157Z,24.27
2018-07-20T21:08:16.894Z,26.47
2018-07-20T21:10:47.645Z,22.63
2018-07-20T21:13:18.525Z,25.60
2018-07-20T21:15:49.273Z,21.70
2018-07-20T21:18:19.974Z,21.10
2018-07-20T21:20:50.791Z,23.03
2018-07-20T21:23:32.102Z,27.27
2018-07-20T21:26:02.879Z,24.20
2018-07-20T21:28:33.754Z,23.67
2018-07-20T21:31:05.219Z,27.17
2018-07-20T21:33:36.521Z,21.20
2018-07-20T21:36:07.297Z,24.43
2018-07-20T21:38:38.340Z,28.30
2018-07-20T21:41:09.214Z,22.00
2018-07-20T21:43:40.162Z,22.13
2018-07-20T21:46:11.092Z,20.83
2018-07-20T21:48:41.991Z,21.63
2018-07-20T21:51:12.955Z,24.53
2018-07-20T21:53:43.761Z,16.70
2018-07-20T21:56:14.579Z,24.67
2018-07-20T21:58:48.645Z,26.40
2018-07-20T22:01:21.581Z,21.87
2018-07-20T22:03:52.609Z,27.13
2018-07-20T22:06:23.517Z,21.70
2018-07-20T22:08:54.279Z,24.17
2018-07-20T22:11:24.985Z,18.70
2018-07-20T22:13:55.756Z,28.50
2018-07-20T22:16:26.490Z,23.90
2018-07-20T22:18:57.246Z,20.83
2018-07-20T22:21:28.022Z,21.37
2018-07-20T22:23:58.758Z,27.90
2018-07-20T22:26:29.437Z,34.27
2018-07-20T22:29:00.325Z,29.53
2018-07-20T22:31:31.000Z,35.00
2018-07-20T22:34:01.871Z,29.97
2018-07-20T22:36:32.659Z,30.80
2018-07-20T22:39:03.570Z,34.53
2018-07-20T22:41:34.319Z,29.67
2018-07-20T22:44:05.500Z,32.87
2018-07-20T22:46:36.220Z,28.97
2018-07-20T22:49:07.087Z,25.27
2018-07-20T22:51:38.125Z,25.50
2018-07-20T22:54:08.880Z,25.17
2018-07-20T22:56:46.284Z,24.93
2018-07-20T22:59:17.262Z,27.90
2018-07-20T23:01:48.122Z,28.90
2018-07-20T23:04:19.080Z,26.27
2018-07-20T23:06:49.817Z,27.47
2018-07-20T23:09:20.550Z,28.17
2018-07-20T23:11:51.238Z,32.20
2018-07-20T23:14:22.101Z,30.07
2018-07-20T23:16:52.881Z,34.03
2018-07-20T23:19:23.554Z,36.40
2018-07-20T23:21:54.487Z,32.07
2018-07-20T23:24:25.274Z,32.97
2018-07-20T23:26:55.942Z,29.20
2018-07-20T23:29:26.769Z,26.23
2018-07-20T23:31:57.544Z,26.80
2018-07-20T23:34:28.325Z,29.87
2018-07-20T23:36:59.414Z,29.23
2018-07-20T23:39:30.322Z,26.43
2018-07-20T23:42:01.002Z,24.43
2018-07-20T23:44:31.840Z,23.37
2018-07-20T23:47:02.936Z,25.57
2018-07-20T23:49:33.592Z,28.93
2018-07-20T23:52:04.377Z,29.20
2018-07-20T23:54:35.208Z,27.20
2018-07-20T23:57:06.385Z,28.30
2018-07-20T23:59:37.196Z,29.40
